Time;durP1;ratioP1;P1;durP2;ratioP2;P2;SDS_P1;SDS_P2;PMS_P1;PMS_P2;Temp;Humidity;BMP_temperature;BMP_pressure;BME280_temperature;BME280_humidity;BME280_pressure;Samples;Min_cycle;Max_cycle;Signal;HPM_P1;HPM_P2
2021/12/28 00:00:17;;;;;;;10.48;7.05;;;;;;;;;;5073391;28;20024;-67
2021/12/28 00:02:45;;;;;;;12.25;7.53;;;;;;;;;;5073624;28;20017;-65
2021/12/28 00:05:11;;;;;;;15.25;8.90;;;;;;;;;;5073255;28;20043;-72
2021/12/28 00:07:38;;;;;;;14.35;7.93;;;;;;;;;;5073340;28;20023;-65
2021/12/28 00:10:06;;;;;;;12.48;6.53;;;;;;;;;;5073601;28;20032;-65
2021/12/28 00:12:34;;;;;;;11.00;6.05;;;;;;;;;;5073148;28;20445;-65
2021/12/28 00:15:18;;;;;;;10.90;6.90;;;;;;;;;;5073044;28;20423;-66
2021/12/28 00:17:59;;;;;;;10.27;5.72;;;;;;;;;;5073097;28;20029;-65
2021/12/28 00:20:25;;;;;;;;;;;;;;;;;;5073574;28;20376;-65
2021/12/28 00:22:50;;;;;;;10.15;5.43;;;;;;;;;;5073118;28;19920;-65
2021/12/28 00:25:16;;;;;;;9.45;5.40;;;;;;;;;;5072990;28;20017;-70
2021/12/28 00:27:42;;;;;;;9.95;5.45;;;;;;;;;;5072688;28;20029;-66
2021/12/28 00:30:08;;;;;;;12.40;6.10;;;;;;;;;;5073068;28;20028;-70
2021/12/28 00:32:34;;;;;;;10.90;6.30;;;;;;;;;;5072950;28;20514;-66
2021/12/28 00:34:59;;;;;;;8.82;5.40;;;;;;;;;;5072598;28;20053;-65
2021/12/28 00:37:25;;;;;;;8.85;5.57;;;;;;;;;;5071671;28;20090;-66
2021/12/28 00:39:50;;;;;;;8.98;5.93;;;;;;;;;;5072987;28;20020;-66
2021/12/28 00:42:16;;;;;;;12.77;5.93;;;;;;;;;;5072806;28;20039;-65
2021/12/28 00:44:41;;;;;;;10.80;5.72;;;;;;;;;;5072606;28;20024;-65
2021/12/28 00:47:07;;;;;;;10.20;5.85;;;;;;;;;;5072392;28;20559;-65
2021/12/28 00:49:32;;;;;;;9.70;5.75;;;;;;;;;;5072627;28;20418;-65
2021/12/28 00:51:58;;;;;;;10.52;5.60;;;;;;;;;;5072681;28;20495;-65
2021/12/28 00:54:23;;;;;;;8.52;5.53;;;;;;;;;;5072612;28;20020;-66
2021/12/28 00:56:49;;;;;;;10.57;6.38;;;;;;;;;;5072302;28;20024;-66
2021/12/28 00:59:14;;;;;;;10.32;6.35;;;;;;;;;;5072315;28;20484;-69
2021/12/28 01:01:40;;;;;;;8.77;5.75;;;;;;;;;;5072480;28;20020;-66
2021/12/28 01:04:05;;;;;;;9.73;5.60;;;;;;;;;;5072309;28;20108;-66
2021/12/28 01:06:31;;;;;;;8.38;5.63;;;;;;;;;;5072275;28;20052;-65
2021/12/28 01:08:56;;;;;;;10.48;5.63;;;;;;;;;;5072177;28;20376;-67
2021/12/28 01:11:22;;;;;;;9.40;5.50;;;;;;;;;;5072155;28;20024;-65
2021/12/28 01:13:48;;;;;;;10.52;5.90;;;;;;;;;;5072160;28;20012;-65
2021/12/28 01:16:16;;;;;;;9.52;6.13;;;;;;;;;;5071811;28;20029;-66
2021/12/28 01:18:42;;;;;;;8.80;5.70;;;;;;;;;;5072053;28;20107;-65
2021/12/28 01:21:08;;;;;;;9.07;5.88;;;;;;;;;;5072414;28;20159;-65
2021/12/28 01:23:33;;;;;;;10.50;5.82;;;;;;;;;;5071743;28;20028;-65
2021/12/28 01:25:59;;;;;;;9.27;5.70;;;;;;;;;;5071657;28;20036;-65
2021/12/28 01:28:24;;;;;;;8.93;5.40;;;;;;;;;;5071538;28;20045;-65
2021/12/28 01:30:50;;;;;;;10.05;5.45;;;;;;;;;;5071786;28;20476;-65
2021/12/28 01:33:16;;;;;;;9.02;5.20;;;;;;;;;;5071608;28;20046;-66
2021/12/28 01:35:42;;;;;;;8.07;5.68;;;;;;;;;;5071256;28;20041;-65
2021/12/28 01:38:08;;;;;;;9.10;5.60;;;;;;;;;;5071512;28;20032;-65
2021/12/28 01:40:36;;;;;;;9.32;5.50;;;;;;;;;;5071397;28;20510;-65
2021/12/28 01:43:14;;;;;;;9.98;5.85;;;;;;;;;;5071217;28;20617;-65
2021/12/28 01:45:42;;;;;;;9.00;5.82;;;;;;;;;;5071362;28;20024;-65
2021/12/28 01:48:11;;;;;;;9.25;5.97;;;;;;;;;;5070987;28;20047;-65
2021/12/28 01:50:37;;;;;;;8.40;5.60;;;;;;;;;;5071067;28;20027;-65
2021/12/28 01:53:04;;;;;;;8.93;5.72;;;;;;;;;;5071168;28;20025;-65
2021/12/28 01:55:31;;;;;;;8.77;6.10;;;;;;;;;;5071184;28;20041;-65
2021/12/28 01:57:56;;;;;;;9.38;6.13;;;;;;;;;;5070706;28;20035;-65
2021/12/28 02:00:24;;;;;;;9.60;5.65;;;;;;;;;;5071006;28;20107;-65
2021/12/28 02:02:49;;;;;;;8.38;5.38;;;;;;;;;;5071071;28;20173;-65
2021/12/28 02:05:15;;;;;;;10.38;5.63;;;;;;;;;;5053437;28;20222;-65
2021/12/28 02:07:40;;;;;;;9.52;6.00;;;;;;;;;;5070968;28;20541;-65
2021/12/28 02:10:06;;;;;;;8.50;5.60;;;;;;;;;;5071101;28;20029;-65
2021/12/28 02:12:32;;;;;;;8.38;5.70;;;;;;;;;;5070837;28;20052;-65
2021/12/28 02:14:57;;;;;;;8.13;5.00;;;;;;;;;;5071137;28;20021;-65
2021/12/28 02:17:23;;;;;;;7.95;4.97;;;;;;;;;;5052526;28;20067;-65
2021/12/28 02:19:48;;;;;;;10.18;5.57;;;;;;;;;;5070931;28;20460;-65
2021/12/28 02:22:14;;;;;;;8.38;5.40;;;;;;;;;;5070854;28;20024;-65
2021/12/28 02:24:39;;;;;;;10.50;5.57;;;;;;;;;;5070676;28;20116;-65
2021/12/28 02:27:05;;;;;;;8.05;4.90;;;;;;;;;;5070653;28;20059;-65
2021/12/28 02:29:31;;;;;;;8.00;4.97;;;;;;;;;;5070590;28;20107;-65
2021/12/28 02:31:56;;;;;;;7.55;4.40;;;;;;;;;;5070631;28;20020;-73
2021/12/28 02:34:26;;;;;;;7.07;4.80;;;;;;;;;;5070514;28;20260;-66
2021/12/28 02:36:51;;;;;;;7.45;4.57;;;;;;;;;;5070154;28;20052;-67
2021/12/28 02:39:18;;;;;;;6.35;4.10;;;;;;;;;;5070595;28;20071;-65
2021/12/28 02:41:43;;;;;;;9.30;4.15;;;;;;;;;;5070582;28;20189;-66
2021/12/28 02:44:09;;;;;;;6.80;3.50;;;;;;;;;;5070644;28;20243;-65
2021/12/28 02:46:34;;;;;;;6.30;3.53;;;;;;;;;;5070389;28;20028;-66
2021/12/28 02:49:00;;;;;;;6.38;3.80;;;;;;;;;;5070309;28;20437;-65
2021/12/28 02:51:26;;;;;;;8.25;3.60;;;;;;;;;;5070788;28;20029;-65
2021/12/28 02:53:51;;;;;;;6.32;3.47;;;;;;;;;;5070528;28;20017;-65
2021/12/28 02:56:19;;;;;;;5.03;3.30;;;;;;;;;;5070122;28;20403;-77
2021/12/28 02:58:47;;;;;;;6.05;3.53;;;;;;;;;;5070333;28;20138;-65
2021/12/28 03:01:29;;;;;;;7.45;3.50;;;;;;;;;;5070062;28;20021;-65
2021/12/28 03:04:03;;;;;;;5.65;3.60;;;;;;;;;;5070607;28;20387;-65
2021/12/28 03:06:29;;;;;;;5.78;3.42;;;;;;;;;;5070117;28;20077;-66
2021/12/28 03:08:56;;;;;;;6.35;3.58;;;;;;;;;;5070096;28;20029;-65
2021/12/28 03:11:24;;;;;;;7.53;3.38;;;;;;;;;;5070539;28;20020;-65
2021/12/28 03:13:53;;;;;;;8.32;3.33;;;;;;;;;;5070279;28;20162;-65
2021/12/28 03:16:20;;;;;;;5.43;3.30;;;;;;;;;;5070307;28;20472;-66
2021/12/28 03:18:46;;;;;;;7.00;3.38;;;;;;;;;;5070088;28;20066;-66
2021/12/28 03:21:14;;;;;;;8.35;3.38;;;;;;;;;;5070333;28;20033;-65
2021/12/28 03:23:40;;;;;;;5.43;3.47;;;;;;;;;;5070092;28;20036;-66
2021/12/28 03:26:07;;;;;;;7.03;3.78;;;;;;;;;;5070167;28;20036;-65
2021/12/28 03:28:36;;;;;;;6.25;3.17;;;;;;;;;;5069897;28;20542;-66
2021/12/28 03:31:04;;;;;;;6.70;3.67;;;;;;;;;;5070274;28;20028;-65
2021/12/28 03:33:32;;;;;;;4.93;2.85;;;;;;;;;;5070118;28;20476;-65
2021/12/28 03:35:58;;;;;;;5.50;2.90;;;;;;;;;;5069815;28;20101;-69
2021/12/28 03:38:24;;;;;;;5.43;2.70;;;;;;;;;;5070386;28;20033;-66
2021/12/28 03:40:50;;;;;;;5.90;2.90;;;;;;;;;;5070451;28;20441;-65
2021/12/28 03:43:17;;;;;;;5.68;2.88;;;;;;;;;;5069854;28;20032;-65
2021/12/28 03:45:43;;;;;;;6.57;2.67;;;;;;;;;;5070067;28;20255;-65
2021/12/28 03:48:08;;;;;;;4.85;2.97;;;;;;;;;;5069745;28;20104;-65
2021/12/28 03:50:35;;;;;;;4.97;3.00;;;;;;;;;;5069875;28;20108;-65
2021/12/28 03:53:02;;;;;;;5.57;2.92;;;;;;;;;;5051931;28;20365;-65
2021/12/28 03:55:27;;;;;;;6.63;3.08;;;;;;;;;;5069879;28;20071;-65
2021/12/28 03:57:55;;;;;;;6.57;2.88;;;;;;;;;;5069494;28;20523;-66
2021/12/28 04:00:23;;;;;;;9.00;3.03;;;;;;;;;;5069793;28;20095;-65
2021/12/28 04:02:49;;;;;;;4.25;2.67;;;;;;;;;;5069937;28;20112;-67
2021/12/28 04:05:16;;;;;;;5.15;2.80;;;;;;;;;;5069815;28;20104;-65
2021/12/28 04:07:42;;;;;;;5.93;3.33;;;;;;;;;;5069511;28;20025;-66
2021/12/28 04:10:11;;;;;;;5.00;2.80;;;;;;;;;;5069830;28;20563;-65
2021/12/28 04:12:37;;;;;;;4.95;2.72;;;;;;;;;;5071401;28;20558;-65
2021/12/28 04:15:05;;;;;;;9.98;3.25;;;;;;;;;;5073356;28;20024;-65
2021/12/28 04:17:33;;;;;;;4.78;2.83;;;;;;;;;;5072926;28;20439;-65
2021/12/28 04:19:59;;;;;;;7.05;3.50;;;;;;;;;;5073162;28;20107;-65
2021/12/28 04:22:24;;;;;;;5.72;3.03;;;;;;;;;;5073233;28;20105;-65
2021/12/28 04:24:50;;;;;;;6.25;2.92;;;;;;;;;;5073149;28;20498;-65
2021/12/28 04:27:15;;;;;;;4.63;2.70;;;;;;;;;;5054957;28;20479;-65
2021/12/28 04:29:41;;;;;;;7.53;2.83;;;;;;;;;;5054866;28;20536;-65
2021/12/28 04:32:07;;;;;;;5.78;3.40;;;;;;;;;;5072966;28;20025;-65
2021/12/28 04:34:33;;;;;;;5.43;2.90;;;;;;;;;;5072843;28;20035;-66
2021/12/28 04:36:58;;;;;;;6.65;3.55;;;;;;;;;;5072851;28;20191;-66
2021/12/28 04:39:23;;;;;;;6.88;3.22;;;;;;;;;;5073028;28;20388;-65
2021/12/28 04:41:49;;;;;;;4.38;2.65;;;;;;;;;;5072863;28;20383;-65
2021/12/28 04:44:22;;;;;;;5.15;2.75;;;;;;;;;;5072759;28;20046;-65
2021/12/28 04:46:47;;;;;;;6.72;2.50;;;;;;;;;;5072618;28;20031;-65
2021/12/28 04:49:14;;;;;;;4.30;2.22;;;;;;;;;;5072307;28;20028;-65
2021/12/28 04:51:40;;;;;;;4.88;2.30;;;;;;;;;;5072776;28;20037;-65
2021/12/28 04:54:11;;;;;;;6.28;1.95;;;;;;;;;;5054827;28;20029;-65
2021/12/28 04:56:36;;;;;;;;;;;;;;;;;;5072931;28;20220;-65
2021/12/28 04:59:02;;;;;;;4.88;2.33;;;;;;;;;;5072312;28;20127;-65
2021/12/28 05:01:27;;;;;;;4.35;2.20;;;;;;;;;;5072382;28;20048;-65
2021/12/28 05:03:52;;;;;;;4.88;2.50;;;;;;;;;;5072361;28;20107;-65
2021/12/28 05:06:18;;;;;;;5.00;2.38;;;;;;;;;;5072140;28;20037;-65
2021/12/28 05:08:43;;;;;;;4.00;2.30;;;;;;;;;;5072138;28;20021;-65
2021/12/28 05:11:09;;;;;;;4.90;2.20;;;;;;;;;;5072152;28;20532;-65
2021/12/28 05:13:34;;;;;;;4.15;2.50;;;;;;;;;;5072277;28;20020;-65
2021/12/28 05:16:00;;;;;;;5.00;3.28;;;;;;;;;;5072012;28;20025;-64
2021/12/28 05:18:25;;;;;;;5.05;2.90;;;;;;;;;;5072161;28;20526;-64
2021/12/28 05:20:51;;;;;;;7.25;3.47;;;;;;;;;;5072092;28;20051;-64
2021/12/28 05:23:16;;;;;;;8.23;4.00;;;;;;;;;;5071411;28;20399;-64
2021/12/28 05:25:42;;;;;;;7.15;3.70;;;;;;;;;;5072062;28;20029;-64
2021/12/28 05:28:07;;;;;;;5.88;3.50;;;;;;;;;;5071581;28;20029;-64
2021/12/28 05:30:33;;;;;;;5.75;3.25;;;;;;;;;;5071812;28;20415;-64
2021/12/28 05:32:59;;;;;;;5.22;3.03;;;;;;;;;;5071861;28;20487;-64
2021/12/28 05:35:25;;;;;;;6.63;2.97;;;;;;;;;;5071511;28;20120;-65
2021/12/28 05:37:50;;;;;;;7.20;2.72;;;;;;;;;;5071384;28;20024;-64
2021/12/28 05:40:16;;;;;;;5.13;2.33;;;;;;;;;;5071639;28;20036;-65
2021/12/28 05:42:42;;;;;;;5.35;2.50;;;;;;;;;;5071646;28;20059;-65
2021/12/28 05:45:08;;;;;;;4.13;2.17;;;;;;;;;;5071501;28;20028;-64
2021/12/28 05:47:34;;;;;;;3.58;2.28;;;;;;;;;;5071252;28;20480;-65
2021/12/28 05:50:00;;;;;;;5.65;2.50;;;;;;;;;;5071405;28;20111;-64
2021/12/28 05:52:26;;;;;;;5.55;2.60;;;;;;;;;;5071267;28;20150;-65
2021/12/28 05:54:51;;;;;;;4.43;2.50;;;;;;;;;;5071342;28;20036;-64
2021/12/28 05:57:17;;;;;;;4.47;2.33;;;;;;;;;;5071081;28;20437;-65
2021/12/28 05:59:43;;;;;;;3.97;2.38;;;;;;;;;;5070841;28;20112;-65
2021/12/28 06:02:08;;;;;;;4.93;2.25;;;;;;;;;;5071069;28;20025;-65
2021/12/28 06:04:34;;;;;;;4.25;2.50;;;;;;;;;;5071401;28;20077;-64
2021/12/28 06:07:00;;;;;;;3.75;2.28;;;;;;;;;;5071021;28;20518;-65
2021/12/28 06:09:25;;;;;;;4.03;2.30;;;;;;;;;;5071046;28;20040;-65
2021/12/28 06:11:51;;;;;;;7.28;2.38;;;;;;;;;;5070909;28;20392;-64
2021/12/28 06:14:16;;;;;;;4.13;2.30;;;;;;;;;;5070694;28;20047;-64
2021/12/28 06:16:42;;;;;;;4.70;2.25;;;;;;;;;;5070817;28;20230;-64
2021/12/28 06:19:07;;;;;;;3.50;2.08;;;;;;;;;;5070634;28;20078;-64
2021/12/28 06:21:34;;;;;;;4.68;2.13;;;;;;;;;;5070837;28;20032;-65
2021/12/28 06:24:01;;;;;;;5.78;2.40;;;;;;;;;;5070668;28;20101;-69
2021/12/28 06:26:31;;;;;;;4.20;2.30;;;;;;;;;;5070568;28;20094;-65
2021/12/28 06:28:57;;;;;;;4.47;2.28;;;;;;;;;;5070077;28;20042;-64
2021/12/28 06:31:23;;;;;;;5.70;2.30;;;;;;;;;;5070720;28;20461;-65
2021/12/28 06:33:49;;;;;;;3.90;1.92;;;;;;;;;;5070355;28;20028;-64
2021/12/28 06:36:15;;;;;;;4.07;2.13;;;;;;;;;;5069684;28;20039;-64
2021/12/28 06:38:40;;;;;;;3.75;2.33;;;;;;;;;;5070352;28;20035;-64
2021/12/28 06:41:07;;;;;;;6.25;2.72;;;;;;;;;;5070518;28;20028;-64
2021/12/28 06:43:33;;;;;;;5.22;2.20;;;;;;;;;;5070174;28;20451;-65
2021/12/28 06:45:58;;;;;;;6.65;2.20;;;;;;;;;;5070416;28;20096;-64
2021/12/28 06:48:24;;;;;;;4.75;1.98;;;;;;;;;;5070081;28;20029;-64
2021/12/28 06:50:49;;;;;;;6.40;2.17;;;;;;;;;;5070229;28;20107;-65
2021/12/28 06:53:16;;;;;;;4.18;1.92;;;;;;;;;;5070427;28;20048;-64
2021/12/28 06:55:41;;;;;;;4.60;2.17;;;;;;;;;;5070346;28;20033;-64
2021/12/28 06:58:07;;;;;;;4.47;2.13;;;;;;;;;;5069943;28;20536;-64
2021/12/28 07:00:33;;;;;;;3.70;1.90;;;;;;;;;;5070416;28;20020;-65
2021/12/28 07:02:59;;;;;;;5.88;2.28;;;;;;;;;;5070421;28;20500;-65
2021/12/28 07:05:25;;;;;;;4.07;1.80;;;;;;;;;;5070116;28;20476;-64
2021/12/28 07:07:51;;;;;;;3.63;1.70;;;;;;;;;;5085626;28;20388;-75
2021/12/28 07:10:20;;;;;;;3.97;1.70;;;;;;;;;;5070202;28;20025;-64
2021/12/28 07:12:50;;;;;;;3.25;1.60;;;;;;;;;;5070063;28;20034;-65
2021/12/28 07:15:16;;;;;;;3.05;1.10;;;;;;;;;;5070333;28;20070;-65
2021/12/28 07:17:41;;;;;;;4.18;1.60;;;;;;;;;;5070082;28;20047;-64
2021/12/28 07:20:08;;;;;;;4.10;1.05;;;;;;;;;;5069945;28;20021;-65
2021/12/28 07:22:34;;;;;;;2.53;1.13;;;;;;;;;;5070027;28;20033;-65
2021/12/28 07:24:59;;;;;;;6.28;1.73;;;;;;;;;;5069860;28;20103;-65
2021/12/28 07:27:25;;;;;;;3.55;1.80;;;;;;;;;;5070034;28;20029;-64
2021/12/28 07:29:50;;;;;;;3.90;1.48;;;;;;;;;;5069711;28;20482;-64
2021/12/28 07:32:16;;;;;;;3.83;1.58;;;;;;;;;;5070174;28;20203;-64
2021/12/28 07:34:41;;;;;;;2.15;1.30;;;;;;;;;;5069994;28;20044;-65
2021/12/28 07:37:07;;;;;;;3.90;1.30;;;;;;;;;;5069658;28;20071;-65
2021/12/28 07:39:32;;;;;;;3.65;1.67;;;;;;;;;;5051694;28;20039;-65
2021/12/28 07:41:58;;;;;;;2.08;1.20;;;;;;;;;;5069776;28;20103;-65
2021/12/28 07:44:24;;;;;;;3.70;1.77;;;;;;;;;;5069785;28;20104;-65
2021/12/28 07:46:50;;;;;;;5.00;2.33;;;;;;;;;;5072268;28;20071;-64
2021/12/28 07:49:15;;;;;;;6.13;2.17;;;;;;;;;;5073373;28;20052;-65
2021/12/28 07:51:41;;;;;;;6.60;2.60;;;;;;;;;;5073388;28;20039;-64
2021/12/28 07:54:06;;;;;;;4.32;2.33;;;;;;;;;;5073434;28;20039;-64
2021/12/28 07:56:32;;;;;;;4.38;2.05;;;;;;;;;;5073368;28;20029;-65
2021/12/28 07:58:58;;;;;;;3.97;1.92;;;;;;;;;;5073319;28;20021;-65
2021/12/28 08:01:23;;;;;;;4.45;2.13;;;;;;;;;;5073388;28;20021;-65
2021/12/28 08:03:49;;;;;;;6.63;2.90;;;;;;;;;;5073667;28;20040;-65
2021/12/28 08:06:14;;;;;;;4.57;2.50;;;;;;;;;;5073832;28;20028;-73
2021/12/28 08:08:39;;;;;;;4.85;1.80;;;;;;;;;;5073175;28;20028;-65
2021/12/28 08:11:05;;;;;;;3.97;1.85;;;;;;;;;;5073252;28;20107;-65
2021/12/28 08:13:30;;;;;;;3.95;1.55;;;;;;;;;;5073428;28;20032;-65
2021/12/28 08:15:56;;;;;;;3.33;1.80;;;;;;;;;;5073384;28;20071;-65
2021/12/28 08:18:22;;;;;;;4.68;2.05;;;;;;;;;;5072965;28;20036;-74
2021/12/28 08:20:47;;;;;;;3.80;1.63;;;;;;;;;;5073430;28;20040;-65
2021/12/28 08:23:14;;;;;;;4.63;1.50;;;;;;;;;;5073159;28;20029;-65
2021/12/28 08:25:39;;;;;;;2.55;1.40;;;;;;;;;;5055064;28;20124;-65
2021/12/28 08:28:06;;;;;;;4.63;1.50;;;;;;;;;;5073021;28;20108;-65
2021/12/28 08:30:35;;;;;;;4.75;1.50;;;;;;;;;;5072761;28;20105;-65
2021/12/28 08:33:02;;;;;;;5.03;1.40;;;;;;;;;;5072952;28;20101;-65
2021/12/28 08:35:27;;;;;;;4.00;2.03;;;;;;;;;;5072656;28;20068;-65
2021/12/28 08:37:53;;;;;;;2.42;1.33;;;;;;;;;;5072669;28;20133;-65
2021/12/28 08:40:20;;;;;;;3.38;1.40;;;;;;;;;;5072525;28;20028;-65
2021/12/28 08:42:46;;;;;;;3.70;1.50;;;;;;;;;;5072880;28;20104;-65
2021/12/28 08:45:12;;;;;;;2.85;1.20;;;;;;;;;;5072734;28;20116;-65
2021/12/28 08:47:38;;;;;;;2.05;1.05;;;;;;;;;;5072674;28;20028;-64
2021/12/28 08:50:06;;;;;;;2.28;1.20;;;;;;;;;;5072602;28;20094;-65
2021/12/28 08:52:31;;;;;;;3.03;1.20;;;;;;;;;;5072332;28;20028;-65
2021/12/28 08:54:57;;;;;;;3.40;1.27;;;;;;;;;;5072441;28;20020;-64
2021/12/28 08:57:23;;;;;;;2.60;1.35;;;;;;;;;;5071564;28;20028;-65
2021/12/28 08:59:48;;;;;;;4.35;1.95;;;;;;;;;;5072248;28;20028;-64
2021/12/28 09:02:14;;;;;;;3.65;1.55;;;;;;;;;;5072530;28;20579;-65
2021/12/28 09:04:43;;;;;;;3.38;1.60;;;;;;;;;;5072770;28;20064;-65
2021/12/28 09:07:16;;;;;;;2.40;1.35;;;;;;;;;;5072430;28;20163;-65
2021/12/28 09:09:42;;;;;;;5.95;2.10;;;;;;;;;;5072072;28;20073;-69
2021/12/28 09:12:08;;;;;;;4.63;2.03;;;;;;;;;;5072157;28;20107;-65
2021/12/28 09:14:34;;;;;;;8.43;2.20;;;;;;;;;;5071943;28;20078;-65
2021/12/28 09:17:00;;;;;;;7.55;2.00;;;;;;;;;;5072089;28;20441;-65
2021/12/28 09:19:25;;;;;;;4.30;1.30;;;;;;;;;;5072068;28;20428;-65
2021/12/28 09:21:51;;;;;;;4.05;1.58;;;;;;;;;;5071994;28;20583;-65
2021/12/28 09:24:16;;;;;;;4.80;1.60;;;;;;;;;;5071911;28;20035;-65
2021/12/28 09:26:42;;;;;;;4.40;1.50;;;;;;;;;;5071943;28;20028;-65
2021/12/28 09:29:07;;;;;;;4.80;1.60;;;;;;;;;;5071588;28;20055;-65
2021/12/28 09:31:33;;;;;;;3.65;1.52;;;;;;;;;;5071776;28;20028;-65
2021/12/28 09:33:59;;;;;;;6.80;2.10;;;;;;;;;;5071762;28;20032;-65
2021/12/28 09:36:25;;;;;;;5.88;2.00;;;;;;;;;;5071981;28;20052;-65
2021/12/28 09:38:51;;;;;;;3.38;1.90;;;;;;;;;;5071572;28;20040;-68
2021/12/28 09:41:17;;;;;;;3.67;1.90;;;;;;;;;;5072004;28;20028;-65
2021/12/28 09:43:43;;;;;;;5.55;1.80;;;;;;;;;;5071500;28;20380;-65
2021/12/28 09:46:09;;;;;;;4.95;1.50;;;;;;;;;;5071636;28;20028;-65
2021/12/28 09:48:34;;;;;;;4.80;1.48;;;;;;;;;;5071721;28;20393;-65
2021/12/28 09:51:01;;;;;;;2.53;1.45;;;;;;;;;;5071176;28;20028;-65
2021/12/28 09:53:27;;;;;;;4.22;1.63;;;;;;;;;;5071302;28;20036;-65
2021/12/28 09:55:53;;;;;;;3.85;1.52;;;;;;;;;;5087010;28;20085;-65
2021/12/28 09:58:18;;;;;;;3.17;1.60;;;;;;;;;;5071264;28;20502;-65
2021/12/28 10:00:44;;;;;;;3.45;1.60;;;;;;;;;;5071179;28;20025;-65
2021/12/28 10:03:10;;;;;;;3.47;1.60;;;;;;;;;;5071278;28;20025;-65
2021/12/28 10:05:35;;;;;;;4.68;1.77;;;;;;;;;;5071199;28;20507;-65
2021/12/28 10:08:03;;;;;;;3.53;1.60;;;;;;;;;;5071242;28;20181;-65
2021/12/28 10:10:33;;;;;;;3.70;1.55;;;;;;;;;;5070913;28;20027;-65
2021/12/28 10:13:02;;;;;;;3.03;1.35;;;;;;;;;;5070902;28;20032;-65
2021/12/28 10:15:38;;;;;;;6.13;1.70;;;;;;;;;;5071099;28;20261;-65
2021/12/28 10:18:06;;;;;;;4.55;1.70;;;;;;;;;;5070698;28;20025;-65
2021/12/28 10:20:37;;;;;;;3.15;1.40;;;;;;;;;;5070749;28;20024;-65
2021/12/28 10:23:06;;;;;;;4.88;1.80;;;;;;;;;;5070870;28;20021;-65
2021/12/28 10:25:34;;;;;;;3.97;1.70;;;;;;;;;;5070678;28;20111;-65
2021/12/28 10:28:01;;;;;;;3.47;1.70;;;;;;;;;;5070585;28;20032;-65
2021/12/28 10:30:36;;;;;;;4.22;1.80;;;;;;;;;;5070417;28;20032;-65
2021/12/28 10:33:07;;;;;;;4.07;1.80;;;;;;;;;;5070639;28;20033;-65
2021/12/28 10:35:37;;;;;;;3.70;1.80;;;;;;;;;;5070383;28;20047;-65
2021/12/28 10:38:05;;;;;;;3.90;1.92;;;;;;;;;;5070495;28;20043;-65
2021/12/28 10:40:40;;;;;;;5.22;2.47;;;;;;;;;;5052525;28;20045;-65
2021/12/28 10:43:26;;;;;;;6.57;2.28;;;;;;;;;;5070436;28;20025;-65
2021/12/28 10:46:01;;;;;;;5.78;2.05;;;;;;;;;;5070507;28;20024;-65
2021/12/28 10:48:34;;;;;;;4.68;2.10;;;;;;;;;;5070521;28;20028;-65
2021/12/28 10:51:08;;;;;;;5.55;2.00;;;;;;;;;;5070485;28;20033;-65
2021/12/28 10:56:23;;;;;;;6.70;2.20;;;;;;;;;;5070432;28;20123;-65
2021/12/28 10:58:50;;;;;;;8.52;2.88;;;;;;;;;;5070277;28;20117;-65
2021/12/28 11:01:17;;;;;;;5.35;2.30;;;;;;;;;;5070025;28;20021;-65
2021/12/28 11:03:46;;;;;;;5.97;2.05;;;;;;;;;;5070403;28;20052;-69
2021/12/28 11:06:20;;;;;;;5.68;2.13;;;;;;;;;;5070325;28;20275;-65
2021/12/28 11:08:49;;;;;;;5.30;2.35;;;;;;;;;;5052495;28;20024;-65
2021/12/28 11:11:17;;;;;;;4.95;2.25;;;;;;;;;;5070126;28;20561;-65
2021/12/28 11:13:44;;;;;;;7.88;2.20;;;;;;;;;;5052123;28;20021;-65
2021/12/28 11:16:11;;;;;;;5.50;2.33;;;;;;;;;;5070233;28;20032;-65
2021/12/28 11:18:44;;;;;;;7.82;2.55;;;;;;;;;;5070088;28;20028;-65
2021/12/28 11:21:16;;;;;;;7.18;2.53;;;;;;;;;;5071319;28;20107;-65
2021/12/28 11:23:43;;;;;;;4.60;2.25;;;;;;;;;;5074190;28;20043;-65
2021/12/28 11:26:19;;;;;;;4.30;2.33;;;;;;;;;;5074147;28;20492;-66
2021/12/28 11:28:53;;;;;;;5.00;2.47;;;;;;;;;;5055865;28;20028;-65
2021/12/28 11:31:40;;;;;;;5.90;2.47;;;;;;;;;;5073967;28;20029;-65
2021/12/28 11:34:07;;;;;;;4.50;2.38;;;;;;;;;;5074076;28;20103;-65
2021/12/28 11:36:43;;;;;;;6.30;2.65;;;;;;;;;;5073657;28;20040;-65
2021/12/28 11:39:11;;;;;;;6.47;2.67;;;;;;;;;;5073961;28;20526;-66
2021/12/28 11:41:38;;;;;;;7.07;2.67;;;;;;;;;;5073656;28;20031;-65
2021/12/28 11:44:04;;;;;;;5.93;2.70;;;;;;;;;;5073653;28;20388;-66
2021/12/28 11:46:29;;;;;;;7.07;2.33;;;;;;;;;;5073837;28;20028;-65
2021/12/28 11:48:55;;;;;;;6.85;2.60;;;;;;;;;;5073627;28;20020;-66
2021/12/28 11:51:22;;;;;;;6.63;2.33;;;;;;;;;;5073693;28;20475;-65
2021/12/28 11:53:49;;;;;;;6.55;2.40;;;;;;;;;;5073572;28;20515;-66
2021/12/28 11:56:18;;;;;;;8.32;2.50;;;;;;;;;;5073900;28;20055;-65
2021/12/28 11:59:16;;;;;;;4.97;2.15;;;;;;;;;;5073520;28;20024;-65
2021/12/28 12:01:43;;;;;;;4.32;2.30;;;;;;;;;;5073323;28;20037;-65
2021/12/28 12:04:35;;;;;;;5.97;2.60;;;;;;;;;;5073470;28;20060;-65
2021/12/28 12:07:04;;;;;;;5.28;2.40;;;;;;;;;;5068431;28;20048;-66
2021/12/28 12:09:31;;;;;;;5.15;2.42;;;;;;;;;;5073466;28;20024;-66
2021/12/28 12:12:10;;;;;;;6.47;2.20;;;;;;;;;;5073193;28;20029;-65
2021/12/28 12:14:55;;;;;;;3.97;2.25;;;;;;;;;;5073171;28;20028;-66
2021/12/28 12:17:38;;;;;;;6.03;2.40;;;;;;;;;;5073166;28;20035;-65
2021/12/28 12:20:27;;;;;;;5.28;2.38;;;;;;;;;;5073331;28;20029;-66
2021/12/28 12:23:04;;;;;;;8.00;2.20;;;;;;;;;;5073130;28;20222;-65
2021/12/28 12:25:51;;;;;;;5.43;2.13;;;;;;;;;;5073207;28;20059;-65
2021/12/28 12:28:39;;;;;;;5.65;2.20;;;;;;;;;;5072979;28;20086;-66
2021/12/28 12:31:08;;;;;;;5.97;2.10;;;;;;;;;;5072966;28;20025;-65
2021/12/28 12:33:40;;;;;;;5.28;2.33;;;;;;;;;;5071724;28;20086;-65
2021/12/28 12:36:15;;;;;;;6.40;2.22;;;;;;;;;;5072777;28;20051;-66
2021/12/28 12:38:41;;;;;;;7.43;2.75;;;;;;;;;;5072764;28;20032;-65
2021/12/28 12:41:11;;;;;;;4.85;2.40;;;;;;;;;;5073116;28;20032;-66
2021/12/28 12:43:37;;;;;;;7.70;2.30;;;;;;;;;;5072781;28;20090;-65
2021/12/28 12:46:23;;;;;;;5.88;2.70;;;;;;;;;;5072614;28;20445;-65
2021/12/28 12:48:54;;;;;;;8.82;2.50;;;;;;;;;;5072658;28;20033;-65
2021/12/28 12:51:22;;;;;;;6.80;2.35;;;;;;;;;;5072519;28;20059;-65
2021/12/28 12:54:06;;;;;;;5.30;2.50;;;;;;;;;;5072564;28;20551;-65
2021/12/28 12:56:57;;;;;;;7.30;2.30;;;;;;;;;;5072456;28;20471;-65
2021/12/28 12:59:41;;;;;;;4.60;2.63;;;;;;;;;;5072485;28;20181;-65
2021/12/28 13:02:14;;;;;;;5.85;2.60;;;;;;;;;;5072157;28;20075;-66
2021/12/28 13:04:43;;;;;;;10.85;2.72;;;;;;;;;;5072218;28;20024;-65
2021/12/28 13:07:17;;;;;;;5.90;2.60;;;;;;;;;;5072410;28;20111;-66
2021/12/28 13:10:03;;;;;;;5.20;2.20;;;;;;;;;;5072183;28;20024;-65
2021/12/28 13:12:30;;;;;;;6.30;2.70;;;;;;;;;;5071559;28;20040;-65
2021/12/28 13:14:57;;;;;;;4.53;2.03;;;;;;;;;;5072046;28;20201;-65
2021/12/28 13:17:28;;;;;;;6.43;1.85;;;;;;;;;;5072203;28;20268;-66
2021/12/28 13:20:09;;;;;;;5.50;2.40;;;;;;;;;;5072142;28;20029;-65
2021/12/28 13:22:42;;;;;;;;;;;;;;;;;;5072420;28;20086;-65
2021/12/28 13:25:11;;;;;;;6.13;2.20;;;;;;;;;;5071976;28;19916;-66
2021/12/28 13:27:38;;;;;;;7.25;2.00;;;;;;;;;;5071769;28;20033;-65
2021/12/28 13:30:08;;;;;;;4.50;2.05;;;;;;;;;;5071697;28;20032;-65
2021/12/28 13:32:37;;;;;;;7.13;2.13;;;;;;;;;;5071785;28;20037;-65
2021/12/28 13:35:10;;;;;;;5.55;1.92;;;;;;;;;;5071689;28;20044;-65
2021/12/28 13:38:01;;;;;;;6.72;2.00;;;;;;;;;;5071557;28;20060;-66
2021/12/28 13:40:38;;;;;;;9.15;2.10;;;;;;;;;;5071065;28;20033;-66
2021/12/28 13:43:19;;;;;;;7.10;1.77;;;;;;;;;;5071495;28;20116;-66
2021/12/28 13:45:55;;;;;;;;;;;;;;;;;;5072167;28;20346;-66
2021/12/28 13:48:28;;;;;;;5.32;2.10;;;;;;;;;;5071411;28;19956;-66
2021/12/28 13:50:55;;;;;;;4.47;1.90;;;;;;;;;;5071309;28;20531;-66
2021/12/28 13:53:23;;;;;;;7.78;2.20;;;;;;;;;;5071412;28;20027;-69
2021/12/28 13:56:01;;;;;;;7.57;2.05;;;;;;;;;;5071376;28;20024;-65
2021/12/28 13:58:42;;;;;;;7.57;1.90;;;;;;;;;;5071153;28;20040;-65
2021/12/28 14:01:11;;;;;;;6.50;2.10;;;;;;;;;;5071065;28;20025;-68
2021/12/28 14:03:37;;;;;;;5.95;1.90;;;;;;;;;;5071464;28;20018;-66
2021/12/28 14:06:05;;;;;;;5.47;1.75;;;;;;;;;;5071182;28;20021;-66
2021/12/28 14:08:32;;;;;;;7.85;1.98;;;;;;;;;;5071211;28;20414;-65
2021/12/28 14:11:00;;;;;;;10.27;2.38;;;;;;;;;;5071063;28;20188;-65
2021/12/28 14:13:33;;;;;;;5.13;1.88;;;;;;;;;;5070807;28;20091;-65
2021/12/28 14:16:03;;;;;;;5.25;1.88;;;;;;;;;;5070861;28;20146;-66
2021/12/28 14:18:33;;;;;;;6.07;2.00;;;;;;;;;;5070924;28;20032;-65
2021/12/28 14:21:29;;;;;;;6.18;2.10;;;;;;;;;;5070679;28;20407;-65
2021/12/28 14:24:09;;;;;;;10.68;2.08;;;;;;;;;;5062159;28;20036;-66
2021/12/28 14:26:40;;;;;;;3.90;1.80;;;;;;;;;;5070854;28;20059;-65
2021/12/28 14:29:19;;;;;;;5.95;1.80;;;;;;;;;;5070651;28;20035;-65
2021/12/28 14:31:57;;;;;;;7.70;1.92;;;;;;;;;;5070470;28;20419;-65
2021/12/28 14:34:33;;;;;;;2.47;1.60;;;;;;;;;;5070568;28;20480;-65
2021/12/28 14:37:06;;;;;;;4.45;1.50;;;;;;;;;;5070556;28;20080;-65
2021/12/28 14:39:40;;;;;;;4.13;2.00;;;;;;;;;;5070803;28;20581;-66
2021/12/28 14:42:09;;;;;;;5.20;1.55;;;;;;;;;;5070532;28;20081;-65
2021/12/28 14:44:38;;;;;;;4.68;1.83;;;;;;;;;;5070458;28;20559;-65
2021/12/28 14:47:13;;;;;;;4.05;1.85;;;;;;;;;;5070902;28;20071;-66
2021/12/28 14:49:39;;;;;;;5.88;2.13;;;;;;;;;;5070432;28;20024;-65
2021/12/28 14:52:22;;;;;;;5.05;2.08;;;;;;;;;;5052289;28;20128;-66